createdAt,value
2019-03-10T00:00:26.008Z,5.90
2019-03-10T00:02:54.943Z,5.80
2019-03-10T00:05:23.783Z,5.70
2019-03-10T00:07:52.832Z,5.80
2019-03-10T00:10:22.061Z,5.80
2019-03-10T00:12:51.000Z,5.80
2019-03-10T00:15:19.932Z,5.80
2019-03-10T00:17:48.784Z,5.70
2019-03-10T00:20:17.701Z,5.70
2019-03-10T00:22:46.714Z,5.60
2019-03-10T00:25:15.761Z,5.70
2019-03-10T00:27:44.698Z,5.70
2019-03-10T00:30:13.741Z,5.60
2019-03-10T00:32:42.658Z,5.60
2019-03-10T00:35:11.706Z,5.60
2019-03-10T00:37:40.634Z,5.60
2019-03-10T00:40:30.023Z,5.50
2019-03-10T00:43:19.868Z,5.60
2019-03-10T00:46:40.883Z,5.60
2019-03-10T00:49:59.312Z,5.50
2019-03-10T00:52:32.942Z,5.60
2019-03-10T00:55:01.867Z,5.50
2019-03-10T00:57:30.733Z,5.60
2019-03-10T01:00:00.615Z,5.60
2019-03-10T01:02:30.151Z,5.60
2019-03-10T01:04:58.951Z,5.70
2019-03-10T01:07:27.878Z,5.60
2019-03-10T01:09:56.761Z,5.60
2019-03-10T01:12:25.793Z,5.60
2019-03-10T01:14:54.648Z,5.60
2019-03-10T01:17:23.605Z,5.60
2019-03-10T01:19:53.298Z,5.60
2019-03-10T01:22:22.264Z,5.60
2019-03-10T01:24:51.183Z,5.60
2019-03-10T01:27:19.974Z,5.60
2019-03-10T01:29:49.214Z,5.60
2019-03-10T01:32:38.309Z,5.50
2019-03-10T01:35:25.693Z,5.40
2019-03-10T01:37:54.585Z,5.50
2019-03-10T01:40:23.415Z,5.50
2019-03-10T01:42:52.211Z,5.30
2019-03-10T01:45:21.120Z,5.40
2019-03-10T01:47:50.051Z,5.40
2019-03-10T01:50:18.825Z,5.40
2019-03-10T01:52:47.737Z,5.40
2019-03-10T01:55:17.663Z,5.50
2019-03-10T01:57:46.539Z,5.50
2019-03-10T02:00:16.379Z,5.50
2019-03-10T02:02:45.418Z,5.60
2019-03-10T02:05:14.331Z,5.70
2019-03-10T02:07:43.318Z,5.60
2019-03-10T02:10:13.115Z,5.60
2019-03-10T02:12:42.046Z,5.50
2019-03-10T02:15:13.638Z,5.50
2019-03-10T02:17:42.642Z,5.30
2019-03-10T02:20:14.057Z,5.40
2019-03-10T02:22:43.003Z,5.50
2019-03-10T02:25:11.900Z,5.50
2019-03-10T02:27:40.728Z,5.50
2019-03-10T02:30:13.085Z,5.50
2019-03-10T02:32:42.030Z,5.40
2019-03-10T02:35:10.958Z,5.40
2019-03-10T02:37:39.917Z,5.40
2019-03-10T02:40:09.629Z,5.50
2019-03-10T02:42:38.595Z,5.30
2019-03-10T02:45:08.168Z,5.40
2019-03-10T02:47:37.019Z,5.30
2019-03-10T02:50:06.404Z,5.40
2019-03-10T02:52:35.289Z,5.40
2019-03-10T02:55:04.365Z,5.30
2019-03-10T02:57:33.201Z,5.40
2019-03-10T03:00:01.963Z,5.30
2019-03-10T03:02:30.835Z,5.40
2019-03-10T03:04:59.649Z,5.40
2019-03-10T03:07:28.484Z,5.40
2019-03-10T03:09:57.293Z,5.40
2019-03-10T03:12:26.084Z,5.30
2019-03-10T03:14:55.016Z,5.30
2019-03-10T03:17:23.796Z,5.40
2019-03-10T03:19:52.722Z,5.40
2019-03-10T03:22:21.579Z,5.40
2019-03-10T03:24:50.410Z,5.30
2019-03-10T03:27:19.390Z,5.20
2019-03-10T03:29:48.236Z,5.20
2019-03-10T03:32:17.097Z,5.30
2019-03-10T03:34:45.875Z,5.40
2019-03-10T03:37:17.290Z,5.40
2019-03-10T03:39:50.829Z,5.40
2019-03-10T03:42:19.622Z,5.40
2019-03-10T03:44:48.540Z,5.40
2019-03-10T03:47:17.343Z,5.50
2019-03-10T03:49:46.128Z,5.40
2019-03-10T03:52:14.903Z,5.40
2019-03-10T03:54:43.699Z,5.30
2019-03-10T03:57:12.538Z,5.50
2019-03-10T03:59:41.389Z,5.50
2019-03-10T04:02:14.790Z,5.50
2019-03-10T04:04:43.610Z,5.50
2019-03-10T04:07:12.375Z,5.50
2019-03-10T04:09:41.150Z,5.50
2019-03-10T04:12:10.064Z,5.50
2019-03-10T04:14:39.319Z,5.30
2019-03-10T04:17:08.182Z,5.40
2019-03-10T04:19:37.027Z,5.50
2019-03-10T04:22:05.892Z,5.50
2019-03-10T04:24:34.666Z,5.50
2019-03-10T04:27:03.511Z,5.50
2019-03-10T04:29:32.550Z,5.50
2019-03-10T04:32:01.437Z,5.50
2019-03-10T04:34:30.238Z,5.50
2019-03-10T04:36:59.060Z,5.50
2019-03-10T04:39:27.895Z,5.60
2019-03-10T04:41:56.809Z,5.60
2019-03-10T04:44:25.672Z,5.70
2019-03-10T04:46:54.525Z,5.80
2019-03-10T04:49:23.440Z,5.80
2019-03-10T04:51:52.282Z,5.80
2019-03-10T04:54:38.022Z,5.80
2019-03-10T04:57:11.586Z,5.90
2019-03-10T04:59:40.448Z,5.80
2019-03-10T05:02:09.356Z,5.90
2019-03-10T05:04:38.114Z,5.90
2019-03-10T05:07:06.951Z,5.90
2019-03-10T05:09:35.734Z,6.00
2019-03-10T05:12:04.596Z,5.90
2019-03-10T05:14:33.405Z,5.90
2019-03-10T05:17:02.302Z,6.00
2019-03-10T05:19:31.231Z,6.00
2019-03-10T05:22:00.056Z,5.90
2019-03-10T05:24:28.894Z,5.90
2019-03-10T05:26:57.762Z,6.00
2019-03-10T05:29:26.694Z,5.90
2019-03-10T05:31:55.527Z,6.00
2019-03-10T05:34:24.418Z,6.00
2019-03-10T05:36:53.375Z,6.00
2019-03-10T05:39:22.165Z,6.00
2019-03-10T05:41:51.158Z,5.90
2019-03-10T05:44:19.991Z,6.00
2019-03-10T05:46:48.807Z,5.90
2019-03-10T05:49:17.629Z,5.90
2019-03-10T05:51:46.523Z,6.00
2019-03-10T05:54:15.347Z,6.00
2019-03-10T05:56:44.119Z,5.90
2019-03-10T05:59:12.903Z,6.10
2019-03-10T06:01:41.783Z,6.00
2019-03-10T06:04:10.596Z,6.10
2019-03-10T06:06:39.421Z,6.00
2019-03-10T06:09:08.371Z,6.10
2019-03-10T06:11:37.334Z,6.00
2019-03-10T06:14:06.095Z,6.10
2019-03-10T06:16:34.915Z,6.10
2019-03-10T06:19:03.896Z,6.20
2019-03-10T06:21:38.155Z,6.00
2019-03-10T06:24:07.015Z,5.90
2019-03-10T06:26:35.785Z,5.90
2019-03-10T06:29:04.674Z,5.90
2019-03-10T06:31:33.624Z,5.90
2019-03-10T06:34:02.449Z,5.90
2019-03-10T06:36:31.355Z,5.90
2019-03-10T06:39:00.295Z,5.80
2019-03-10T06:41:31.488Z,6.00
2019-03-10T06:44:00.346Z,6.10
2019-03-10T06:46:29.273Z,6.10
2019-03-10T06:48:58.186Z,6.20
2019-03-10T06:51:27.034Z,6.40
2019-03-10T06:53:55.863Z,6.40
2019-03-10T06:56:24.781Z,6.50
2019-03-10T06:58:53.612Z,6.60
2019-03-10T07:01:22.458Z,6.70
2019-03-10T07:03:51.277Z,6.60
2019-03-10T07:06:20.125Z,6.70
2019-03-10T07:08:49.004Z,6.90
2019-03-10T07:11:17.910Z,6.80
2019-03-10T07:13:46.763Z,6.90
2019-03-10T07:16:15.810Z,6.90
2019-03-10T07:18:44.825Z,6.90
2019-03-10T07:21:13.822Z,7.00
2019-03-10T07:23:42.703Z,7.10
2019-03-10T07:26:11.697Z,7.00
2019-03-10T07:28:55.270Z,7.10
2019-03-10T07:31:46.046Z,7.00
2019-03-10T07:34:36.772Z,7.00
2019-03-10T07:37:27.507Z,7.30
2019-03-10T07:40:14.019Z,7.20
2019-03-10T07:42:51.776Z,7.40
2019-03-10T07:45:35.111Z,7.00
2019-03-10T07:48:26.272Z,7.20
2019-03-10T07:51:13.290Z,7.20
2019-03-10T07:54:01.280Z,7.20
2019-03-10T07:56:58.155Z,7.30
2019-03-10T07:59:40.352Z,7.30
2019-03-10T08:02:27.447Z,7.40
2019-03-10T08:05:15.435Z,7.50
2019-03-10T08:07:52.344Z,7.60
2019-03-10T08:10:43.784Z,7.60
2019-03-10T08:13:25.662Z,7.60
2019-03-10T08:16:12.404Z,7.60
2019-03-10T08:19:02.325Z,7.70
2019-03-10T08:21:56.108Z,7.90
2019-03-10T08:24:38.133Z,7.90
2019-03-10T08:27:30.375Z,8.10
2019-03-10T08:30:30.558Z,7.90
2019-03-10T08:33:18.462Z,8.00
2019-03-10T08:36:08.907Z,8.20
2019-03-10T08:38:48.551Z,8.30
2019-03-10T08:41:35.146Z,8.10
2019-03-10T08:44:17.129Z,8.30
2019-03-10T08:46:52.759Z,8.40
2019-03-10T08:49:45.119Z,8.20
2019-03-10T08:52:16.129Z,8.10
2019-03-10T08:54:56.284Z,8.00
2019-03-10T08:57:37.470Z,8.10
2019-03-10T09:00:22.943Z,8.10
2019-03-10T09:03:17.571Z,8.20
2019-03-10T09:06:17.278Z,8.20
2019-03-10T09:08:56.070Z,8.50
2019-03-10T09:11:42.879Z,8.30
2019-03-10T09:14:18.821Z,8.40
2019-03-10T09:17:11.420Z,8.20
2019-03-10T09:19:49.755Z,8.50
2019-03-10T09:22:41.180Z,8.70
2019-03-10T09:25:27.822Z,8.60
2019-03-10T09:28:12.087Z,8.70
2019-03-10T09:30:46.005Z,8.90
2019-03-10T09:33:43.078Z,8.90
2019-03-10T09:36:49.030Z,8.80
2019-03-10T09:39:29.648Z,8.90
2019-03-10T09:42:29.268Z,9.00
2019-03-10T09:45:06.888Z,8.90
2019-03-10T09:47:57.459Z,9.00
2019-03-10T09:50:34.497Z,9.20
2019-03-10T09:53:30.808Z,9.00
2019-03-10T09:56:10.920Z,9.10
2019-03-10T09:58:52.835Z,9.10
2019-03-10T10:01:46.552Z,9.30
2019-03-10T10:04:32.942Z,9.30
2019-03-10T10:07:19.389Z,9.30
2019-03-10T10:10:10.920Z,9.40
2019-03-10T10:12:56.169Z,9.20
2019-03-10T10:15:47.047Z,9.20
2019-03-10T10:18:22.827Z,9.30
2019-03-10T10:21:17.002Z,9.20
2019-03-10T10:23:55.901Z,8.80
2019-03-10T10:26:50.143Z,9.10
2019-03-10T10:29:41.100Z,9.30
2019-03-10T10:32:20.923Z,9.10
2019-03-10T10:35:03.418Z,9.30
2019-03-10T10:37:49.732Z,9.30
2019-03-10T10:40:46.129Z,9.60
2019-03-10T10:43:36.406Z,9.60
2019-03-10T10:46:18.471Z,9.50
2019-03-10T10:49:25.146Z,9.30
2019-03-10T10:52:11.817Z,9.30
2019-03-10T10:55:12.087Z,9.30
2019-03-10T10:57:57.520Z,9.00
2019-03-10T11:00:39.713Z,9.00
2019-03-10T11:03:17.300Z,9.30
2019-03-10T11:06:04.084Z,9.30
2019-03-10T11:08:41.748Z,9.30
2019-03-10T11:11:22.837Z,9.30
2019-03-10T11:14:13.441Z,9.30
2019-03-10T11:16:58.096Z,9.20
2019-03-10T11:19:36.565Z,9.30
2019-03-10T11:22:16.299Z,9.30
2019-03-10T11:24:50.001Z,9.20
2019-03-10T11:27:40.894Z,9.20
2019-03-10T11:30:22.282Z,9.30
2019-03-10T11:33:16.597Z,9.20
2019-03-10T11:36:07.514Z,9.10
2019-03-10T11:38:46.845Z,8.90
2019-03-10T11:41:33.859Z,8.70
2019-03-10T11:44:17.699Z,8.60
2019-03-10T11:46:59.224Z,8.60
2019-03-10T11:49:39.350Z,8.60
2019-03-10T11:52:19.094Z,8.50
2019-03-10T11:55:06.065Z,8.50
2019-03-10T11:57:45.621Z,8.50
2019-03-10T12:00:21.240Z,8.70
2019-03-10T12:03:18.046Z,8.70
2019-03-10T12:06:15.197Z,8.80
2019-03-10T12:09:06.298Z,9.00
2019-03-10T12:11:35.255Z,8.90
2019-03-10T12:14:04.398Z,8.80
2019-03-10T12:16:33.240Z,8.80
2019-03-10T12:19:02.108Z,9.00
2019-03-10T12:21:31.101Z,8.90
2019-03-10T12:23:59.971Z,9.20
2019-03-10T12:26:28.787Z,9.10
2019-03-10T12:28:57.651Z,9.10
2019-03-10T12:31:26.548Z,9.00
2019-03-10T12:33:55.398Z,9.00
2019-03-10T12:36:24.236Z,9.00
2019-03-10T12:38:53.032Z,8.80
2019-03-10T12:41:21.967Z,8.70
2019-03-10T12:43:50.759Z,8.60
2019-03-10T12:46:19.711Z,8.70
2019-03-10T12:48:48.596Z,8.80
2019-03-10T12:51:17.393Z,8.90
2019-03-10T12:53:46.167Z,8.90
2019-03-10T12:56:14.935Z,8.90
2019-03-10T12:58:43.779Z,8.80
2019-03-10T13:01:12.660Z,8.90
2019-03-10T13:03:41.562Z,8.90
2019-03-10T13:06:10.511Z,9.00
2019-03-10T13:08:39.363Z,8.50
2019-03-10T13:11:08.210Z,8.80
2019-03-10T13:13:37.154Z,9.00
2019-03-10T13:16:06.070Z,9.10
2019-03-10T13:18:34.961Z,9.10
2019-03-10T13:21:04.029Z,8.90
2019-03-10T13:23:32.964Z,8.70
2019-03-10T13:26:02.887Z,8.40
2019-03-10T13:28:31.709Z,8.30
2019-03-10T13:31:00.541Z,8.30
2019-03-10T13:33:29.462Z,8.40
2019-03-10T13:35:58.248Z,8.40
2019-03-10T13:38:27.064Z,8.40
2019-03-10T13:40:55.935Z,8.30
2019-03-10T13:43:24.722Z,8.30
2019-03-10T13:45:53.529Z,8.20
2019-03-10T13:48:22.479Z,8.30
2019-03-10T13:50:51.319Z,8.30
2019-03-10T13:53:20.299Z,8.10
2019-03-10T13:55:49.188Z,7.80
2019-03-10T13:58:18.014Z,7.60
2019-03-10T14:00:46.859Z,7.70
2019-03-10T14:03:15.726Z,7.80
2019-03-10T14:05:44.559Z,8.00
2019-03-10T14:08:13.435Z,8.00
2019-03-10T14:10:42.291Z,8.10
2019-03-10T14:13:11.220Z,8.10
2019-03-10T14:15:40.037Z,8.00
2019-03-10T14:18:08.968Z,7.90
2019-03-10T14:20:38.071Z,7.60
2019-03-10T14:23:07.114Z,7.50
2019-03-10T14:25:36.198Z,7.80
2019-03-10T14:28:05.213Z,7.70
2019-03-10T14:30:34.063Z,7.50
2019-03-10T14:33:02.905Z,7.50
2019-03-10T14:35:31.837Z,7.40
2019-03-10T14:38:00.735Z,7.40
2019-03-10T14:40:29.627Z,7.40
2019-03-10T14:42:58.489Z,7.50
2019-03-10T14:45:27.406Z,7.30
2019-03-10T14:47:56.348Z,7.10
2019-03-10T14:50:25.268Z,7.20
2019-03-10T14:52:54.139Z,7.00
2019-03-10T14:55:23.433Z,7.10
2019-03-10T14:57:52.274Z,7.10
2019-03-10T15:00:21.970Z,6.90
2019-03-10T15:02:50.899Z,6.90
2019-03-10T15:05:19.900Z,6.90
2019-03-10T15:07:48.799Z,6.90
2019-03-10T15:10:17.813Z,6.90
2019-03-10T15:12:46.698Z,6.80
2019-03-10T15:15:22.172Z,6.90
2019-03-10T15:17:48.264Z,7.00
2019-03-10T15:20:17.248Z,7.10
2019-03-10T15:22:46.090Z,7.20
2019-03-10T15:25:14.823Z,7.10
2019-03-10T15:27:43.763Z,7.10
2019-03-10T15:30:15.158Z,7.30
2019-03-10T15:32:44.088Z,7.30
2019-03-10T15:35:13.230Z,7.40
2019-03-10T15:37:42.223Z,7.30
2019-03-10T15:40:12.426Z,7.30
2019-03-10T15:42:41.418Z,7.20
2019-03-10T15:45:11.078Z,7.20
2019-03-10T15:47:39.977Z,7.20
2019-03-10T15:50:12.548Z,7.20
2019-03-10T15:52:41.333Z,7.30
2019-03-10T15:55:10.262Z,7.20
2019-03-10T15:57:49.362Z,7.20
2019-03-10T16:00:13.169Z,7.20
2019-03-10T16:02:42.050Z,7.20
2019-03-10T16:05:11.299Z,7.20
2019-03-10T16:07:40.269Z,7.00
2019-03-10T16:10:10.023Z,7.00
2019-03-10T16:12:38.941Z,7.00
2019-03-10T16:15:10.243Z,6.90
2019-03-10T16:17:39.155Z,6.90
2019-03-10T16:20:09.399Z,6.70
2019-03-10T16:22:38.246Z,6.70
2019-03-10T16:25:08.387Z,6.70
2019-03-10T16:27:37.265Z,6.60
2019-03-10T16:30:07.515Z,6.60
2019-03-10T16:32:36.319Z,6.60
2019-03-10T16:35:05.775Z,6.70
2019-03-10T16:37:34.804Z,6.90
2019-03-10T16:40:04.591Z,7.00
2019-03-10T16:42:33.487Z,6.90
2019-03-10T16:45:02.419Z,6.90
2019-03-10T16:47:31.318Z,6.90
2019-03-10T16:50:00.363Z,7.00
2019-03-10T16:52:31.703Z,7.10
2019-03-10T16:55:02.951Z,7.20
2019-03-10T16:57:33.271Z,6.90
2019-03-10T17:00:05.291Z,6.80
2019-03-10T17:02:34.153Z,6.60
2019-03-10T17:05:03.028Z,6.60
2019-03-10T17:07:32.181Z,6.50
2019-03-10T17:10:01.575Z,6.50
2019-03-10T17:12:30.405Z,6.70
2019-03-10T17:14:59.284Z,6.70
2019-03-10T17:17:28.671Z,6.70
2019-03-10T17:19:57.564Z,6.50
2019-03-10T17:22:26.399Z,6.60
2019-03-10T17:24:55.315Z,6.60
2019-03-10T17:27:24.163Z,6.40
2019-03-10T17:29:53.150Z,6.40
2019-03-10T17:32:22.157Z,6.20
2019-03-10T17:34:51.049Z,6.10
2019-03-10T17:37:20.073Z,6.20
2019-03-10T17:39:49.031Z,6.10
2019-03-10T17:42:17.953Z,6.40
2019-03-10T17:44:49.952Z,6.60
2019-03-10T17:47:18.900Z,6.60
2019-03-10T17:49:47.967Z,6.50
2019-03-10T17:52:16.900Z,6.40
2019-03-10T17:54:45.772Z,6.40
2019-03-10T17:57:14.683Z,6.50
2019-03-10T17:59:43.514Z,6.20
2019-03-10T18:02:12.501Z,5.80
2019-03-10T18:04:41.488Z,5.70
2019-03-10T18:07:10.320Z,5.70
2019-03-10T18:09:39.373Z,5.80
2019-03-10T18:12:08.406Z,5.80
2019-03-10T18:14:37.305Z,6.00
2019-03-10T18:17:06.229Z,5.40
2019-03-10T18:19:35.116Z,5.40
2019-03-10T18:22:04.318Z,5.30
2019-03-10T18:24:33.200Z,5.10
2019-03-10T18:27:07.103Z,5.00
2019-03-10T18:29:35.974Z,5.10
2019-03-10T18:32:04.953Z,5.00
2019-03-10T18:34:33.861Z,5.10
2019-03-10T18:37:02.664Z,4.90
2019-03-10T18:39:31.585Z,4.70
2019-03-10T18:42:03.508Z,4.60
2019-03-10T18:44:32.538Z,4.60
2019-03-10T18:47:01.442Z,4.60
2019-03-10T18:49:30.317Z,4.60
2019-03-10T18:51:59.433Z,4.40
2019-03-10T18:54:28.448Z,4.10
2019-03-10T18:56:57.224Z,3.60
2019-03-10T18:59:26.110Z,3.70
2019-03-10T19:01:56.744Z,3.60
2019-03-10T19:04:25.695Z,3.70
2019-03-10T19:06:54.637Z,3.70
2019-03-10T19:09:23.527Z,3.50
2019-03-10T19:11:52.432Z,3.50
2019-03-10T19:14:21.258Z,3.60
2019-03-10T19:16:50.248Z,3.40
2019-03-10T19:19:19.211Z,3.70
2019-03-10T19:21:48.055Z,3.60
2019-03-10T19:24:16.949Z,3.70
2019-03-10T19:26:45.930Z,3.80
2019-03-10T19:29:14.912Z,4.00
2019-03-10T19:31:43.819Z,4.00
2019-03-10T19:34:12.861Z,4.00
2019-03-10T19:36:41.798Z,3.80
2019-03-10T19:39:10.867Z,3.70
2019-03-10T19:41:39.860Z,3.90
2019-03-10T19:44:08.805Z,3.90
2019-03-10T19:46:37.743Z,4.00
2019-03-10T19:49:06.592Z,3.90
2019-03-10T19:51:35.481Z,3.90
2019-03-10T19:54:04.619Z,3.80
2019-03-10T19:56:33.523Z,3.90
2019-03-10T19:59:02.380Z,3.90
2019-03-10T20:01:34.455Z,3.90
2019-03-10T20:04:03.304Z,3.90
2019-03-10T20:06:32.104Z,3.90
2019-03-10T20:09:01.561Z,3.90
2019-03-10T20:11:30.627Z,3.80
2019-03-10T20:13:59.672Z,3.70
2019-03-10T20:16:28.625Z,3.70
2019-03-10T20:18:57.525Z,3.40
2019-03-10T20:21:26.470Z,3.50
2019-03-10T20:23:55.392Z,3.50
2019-03-10T20:26:24.411Z,3.50
2019-03-10T20:28:53.430Z,3.50
2019-03-10T20:31:22.442Z,3.30
2019-03-10T20:33:52.496Z,3.30
2019-03-10T20:36:21.662Z,3.20
2019-03-10T20:38:51.851Z,3.00
2019-03-10T20:41:20.766Z,3.20
2019-03-10T20:43:49.763Z,3.10
2019-03-10T20:46:18.707Z,3.30
2019-03-10T20:48:47.798Z,3.20
2019-03-10T20:51:16.785Z,3.20
2019-03-10T20:53:45.690Z,3.10
2019-03-10T20:56:14.635Z,3.10
2019-03-10T20:58:43.576Z,3.20
2019-03-10T21:01:12.638Z,3.10
2019-03-10T21:03:41.596Z,3.10
2019-03-10T21:06:10.568Z,3.30
2019-03-10T21:08:39.367Z,3.30
2019-03-10T21:11:08.350Z,3.30
2019-03-10T21:13:37.203Z,3.30
2019-03-10T21:16:06.157Z,3.30
2019-03-10T21:18:36.521Z,3.20
2019-03-10T21:21:05.733Z,3.20
2019-03-10T21:23:34.631Z,3.10
2019-03-10T21:26:03.625Z,3.10
2019-03-10T21:28:32.446Z,3.20
2019-03-10T21:31:01.328Z,3.20
2019-03-10T21:33:30.232Z,3.10
2019-03-10T21:35:59.032Z,3.10
2019-03-10T21:38:27.989Z,3.10
2019-03-10T21:40:56.866Z,3.00
2019-03-10T21:43:25.936Z,2.70
2019-03-10T21:45:54.995Z,2.80
2019-03-10T21:48:23.876Z,2.90
2019-03-10T21:50:52.862Z,3.10
2019-03-10T21:53:21.800Z,3.00
2019-03-10T21:55:53.865Z,3.10
2019-03-10T21:58:22.673Z,3.10
2019-03-10T22:00:51.597Z,3.10
2019-03-10T22:03:20.680Z,3.20
2019-03-10T22:05:49.435Z,3.30
2019-03-10T22:08:18.402Z,3.30
2019-03-10T22:10:47.346Z,3.30
2019-03-10T22:13:16.428Z,3.40
2019-03-10T22:15:48.027Z,3.40
2019-03-10T22:18:17.025Z,3.40
2019-03-10T22:20:46.149Z,3.30
2019-03-10T22:23:14.988Z,3.30
2019-03-10T22:25:43.781Z,3.40
2019-03-10T22:28:12.871Z,3.40
2019-03-10T22:30:41.917Z,3.40
2019-03-10T22:33:12.479Z,3.50
2019-03-10T22:35:41.506Z,3.60
2019-03-10T22:38:10.833Z,3.60
2019-03-10T22:40:39.772Z,3.60
2019-03-10T22:43:08.632Z,3.70
2019-03-10T22:45:37.486Z,3.70
2019-03-10T22:48:06.480Z,3.60
2019-03-10T22:50:35.452Z,3.50
2019-03-10T22:53:04.397Z,3.60
2019-03-10T22:55:33.388Z,3.70
2019-03-10T22:58:02.485Z,3.70
2019-03-10T23:00:49.341Z,3.60
2019-03-10T23:03:18.299Z,3.70
2019-03-10T23:05:47.159Z,3.50
2019-03-10T23:08:16.149Z,3.60
2019-03-10T23:10:45.148Z,3.50
2019-03-10T23:13:14.057Z,3.70
2019-03-10T23:15:43.127Z,3.60
2019-03-10T23:18:11.991Z,3.70
2019-03-10T23:20:40.891Z,3.80
2019-03-10T23:23:09.742Z,3.70
2019-03-10T23:25:38.608Z,3.80
2019-03-10T23:28:07.473Z,3.90
2019-03-10T23:30:36.950Z,3.90
2019-03-10T23:33:05.852Z,3.90
2019-03-10T23:35:34.787Z,3.80
2019-03-10T23:38:03.684Z,3.80
2019-03-10T23:40:32.502Z,3.80
2019-03-10T23:43:01.385Z,3.80
2019-03-10T23:45:30.215Z,3.80
2019-03-10T23:47:59.122Z,3.80
2019-03-10T23:50:27.911Z,3.90
2019-03-10T23:52:56.706Z,3.70
2019-03-10T23:55:25.563Z,3.80
2019-03-10T23:57:54.350Z,3.80
